Time;durP1;ratioP1;P1;durP2;ratioP2;P2;SDS_P1;SDS_P2;PMS_P1;PMS_P2;Temp;Humidity;BMP_temperature;BMP_pressure;BME280_temperature;BME280_humidity;BME280_pressure;Samples;Min_cycle;Max_cycle;Signal;HPM_P1;HPM_P2
2021/05/25 00:01:12;;;;;;;1.52;1.02;;;11.30;99.90;;;;;;5030450;28;20026;-77
2021/05/25 00:03:38;;;;;;;0.80;0.77;;;11.30;99.90;;;;;;5030295;28;20029;-77
2021/05/25 00:06:04;;;;;;;0.65;0.63;;;11.20;99.90;;;;;;5028402;28;20453;-78
2021/05/25 00:08:30;;;;;;;1.60;0.90;;;11.20;99.90;;;;;;5030150;28;20041;-77
2021/05/25 00:10:56;;;;;;;3.30;1.52;;;11.10;99.90;;;;;;5029919;28;20047;-77
2021/05/25 00:13:22;;;;;;;1.40;0.80;;;11.10;99.90;;;;;;5032538;28;20022;-77
2021/05/25 00:15:52;;;;;;;1.63;0.70;;;11.00;99.90;;;;;;5031198;28;20038;-77
2021/05/25 00:18:19;;;;;;;1.77;0.82;;;11.00;99.90;;;;;;5034471;28;20048;-77
2021/05/25 00:20:45;;;;;;;0.65;0.60;;;10.90;99.90;;;;;;5034272;28;20414;-77
2021/05/25 00:23:11;;;;;;;2.40;0.85;;;10.90;99.90;;;;;;5035468;28;20125;-78
2021/05/25 00:25:36;;;;;;;1.15;1.05;;;10.90;99.90;;;;;;5027254;28;20143;-77
2021/05/25 00:28:02;;;;;;;1.38;0.73;;;11.00;99.90;;;;;;5035511;28;20037;-78
2021/05/25 00:30:28;;;;;;;1.55;0.80;;;11.00;99.90;;;;;;5035517;28;20037;-78
2021/05/25 00:32:54;;;;;;;0.52;0.52;;;11.00;99.90;;;;;;5032705;28;20603;-78
2021/05/25 00:35:20;;;;;;;2.08;0.60;;;11.00;99.90;;;;;;5016577;28;20032;-77
2021/05/25 00:37:45;;;;;;;0.85;0.65;;;11.00;99.90;;;;;;5031306;28;20505;-77
2021/05/25 00:40:13;;;;;;;1.58;0.52;;;10.90;99.90;;;;;;5028517;28;20060;-78
2021/05/25 00:42:41;;;;;;;3.30;0.50;;;10.90;99.90;;;;;;5035221;28;20103;-78
2021/05/25 00:45:07;;;;;;;1.60;0.70;;;10.90;99.90;;;;;;5033708;28;20112;-77
2021/05/25 00:47:36;;;;;;;0.40;0.35;;;10.80;99.90;;;;;;5034360;28;20034;-78
2021/05/25 00:50:11;;;;;;;0.40;0.40;;;10.80;99.90;;;;;;5034925;28;20037;-78
2021/05/25 00:52:58;;;;;;;1.27;0.60;;;10.80;99.90;;;;;;5030917;28;20497;-78
2021/05/25 00:55:43;;;;;;;0.60;0.45;;;10.70;99.90;;;;;;5032565;28;20048;-77
2021/05/25 00:58:10;;;;;;;0.98;0.32;;;10.70;99.90;;;;;;5030839;28;20043;-78
2021/05/25 01:00:39;;;;;;;0.80;0.40;;;10.60;99.90;;;;;;5031392;28;20025;-78
2021/05/25 01:03:07;;;;;;;0.47;0.43;;;10.60;99.90;;;;;;5031315;28;20086;-78
2021/05/25 01:05:33;;;;;;;1.60;0.52;;;10.50;99.90;;;;;;5015774;28;20029;-77
2021/05/25 01:07:59;;;;;;;0.68;0.50;;;10.50;99.90;;;;;;5029500;28;20041;-77
2021/05/25 01:10:32;;;;;;;0.70;0.47;;;10.40;99.90;;;;;;5028621;28;20049;-77
2021/05/25 01:13:20;;;;;;;0.40;0.30;;;10.40;99.90;;;;;;5034587;28;20026;-78
2021/05/25 01:15:48;;;;;;;1.25;0.40;;;10.30;99.90;;;;;;5029241;28;20121;-77
2021/05/25 01:18:15;;;;;;;1.58;0.28;;;10.30;99.90;;;;;;5029935;28;20037;-78
2021/05/25 01:20:43;;;;;;;1.88;0.30;;;10.30;99.90;;;;;;5033427;28;20045;-77
2021/05/25 01:23:10;;;;;;;0.40;0.40;;;10.30;99.90;;;;;;5031702;28;20055;-77
2021/05/25 01:25:38;;;;;;;1.50;0.55;;;10.20;99.90;;;;;;5012922;28;20033;-77
2021/05/25 01:28:06;;;;;;;0.75;0.35;;;10.20;99.90;;;;;;5031877;28;20033;-77
2021/05/25 01:30:36;;;;;;;1.75;0.38;;;10.20;99.90;;;;;;5031259;28;20040;-77
2021/05/25 01:33:03;;;;;;;0.35;0.30;;;10.20;99.90;;;;;;5029255;28;20820;-77
2021/05/25 01:35:29;;;;;;;0.25;0.25;;;10.20;99.90;;;;;;5029419;28;20041;-77
2021/05/25 01:37:56;;;;;;;1.10;0.43;;;10.20;99.90;;;;;;5026393;28;20048;-77
2021/05/25 01:40:23;;;;;;;0.40;0.40;;;10.10;99.90;;;;;;5029938;28;20036;-77
2021/05/25 01:42:49;;;;;;;0.65;0.47;;;10.10;99.90;;;;;;5031377;28;20041;-77
2021/05/25 01:45:18;;;;;;;1.23;0.40;;;10.10;99.90;;;;;;5031108;28;20029;-77
2021/05/25 01:47:44;;;;;;;3.08;0.30;;;10.00;99.90;;;;;;5031441;28;20040;-77
2021/05/25 01:50:16;;;;;;;0.63;0.30;;;10.10;99.90;;;;;;5030598;28;20038;-77
2021/05/25 01:52:48;;;;;;;1.63;0.28;;;10.00;99.90;;;;;;5028710;28;20061;-77
2021/05/25 01:55:27;;;;;;;0.25;0.25;;;10.10;99.90;;;;;;5029055;28;20021;-78
2021/05/25 01:57:55;;;;;;;1.58;0.25;;;10.00;99.90;;;;;;5031176;28;20029;-78
2021/05/25 02:00:21;;;;;;;0.28;0.20;;;10.00;99.90;;;;;;5034520;28;20073;-78
2021/05/25 02:02:46;;;;;;;0.40;0.40;;;10.00;99.90;;;;;;5032959;28;20056;-78
2021/05/25 02:05:12;;;;;;;0.57;0.38;;;10.00;99.90;;;;;;5032988;28;20094;-78
2021/05/25 02:07:38;;;;;;;0.22;0.15;;;10.00;99.90;;;;;;5030338;28;20029;-78
2021/05/25 02:10:04;;;;;;;0.70;0.10;;;9.90;99.90;;;;;;5034522;28;20041;-78
2021/05/25 02:12:30;;;;;;;0.40;0.17;;;9.90;99.90;;;;;;5013238;28;20029;-77
2021/05/25 02:14:56;;;;;;;0.10;0.10;;;9.90;99.90;;;;;;5032902;28;20083;-79
2021/05/25 02:17:25;;;;;;;3.92;0.45;;;9.80;99.90;;;;;;5030448;28;20512;-77
2021/05/25 02:19:51;;;;;;;0.20;0.20;;;9.80;99.90;;;;;;5031147;28;20041;-78
2021/05/25 02:22:17;;;;;;;0.65;0.20;;;9.80;99.90;;;;;;5030593;28;20489;-78
2021/05/25 02:24:42;;;;;;;2.22;0.45;;;9.70;99.90;;;;;;5014625;28;20061;-78
2021/05/25 02:27:08;;;;;;;0.95;0.30;;;9.70;99.90;;;;;;5030835;28;20041;-78
2021/05/25 02:29:34;;;;;;;1.90;0.28;;;9.60;99.90;;;;;;5029624;28;20032;-78
2021/05/25 02:32:00;;;;;;;0.75;0.20;;;9.60;99.90;;;;;;5032515;28;20022;-78
2021/05/25 02:34:25;;;;;;;1.88;0.30;;;9.50;99.90;;;;;;5026572;28;20484;-78
2021/05/25 02:36:51;;;;;;;0.35;0.13;;;9.50;99.90;;;;;;5028424;28;20567;-77
2021/05/25 02:39:17;;;;;;;0.30;0.20;;;9.50;99.90;;;;;;5029158;28;20037;-77
2021/05/25 02:41:42;;;;;;;0.13;0.10;;;9.50;99.90;;;;;;5030393;28;20030;-77
2021/05/25 02:44:08;;;;;;;1.05;0.30;;;9.40;99.90;;;;;;5029584;28;20029;-77
2021/05/25 02:46:34;;;;;;;0.40;0.20;;;9.40;99.90;;;;;;5025883;28;20029;-78
2021/05/25 02:48:59;;;;;;;0.20;0.20;;;9.30;99.90;;;;;;5028572;28;20029;-77
2021/05/25 02:51:25;;;;;;;0.22;0.20;;;9.30;99.90;;;;;;5012515;28;20514;-78
2021/05/25 02:53:51;;;;;;;0.75;0.20;;;9.30;99.90;;;;;;5029338;28;20037;-78
2021/05/25 02:56:16;;;;;;;0.30;0.20;;;9.30;99.90;;;;;;5011429;28;20079;-77
2021/05/25 02:58:42;;;;;;;0.20;0.20;;;9.20;99.90;;;;;;5030133;28;20500;-78
2021/05/25 03:01:08;;;;;;;1.40;0.20;;;9.20;99.90;;;;;;5029161;28;20080;-78
2021/05/25 03:03:33;;;;;;;0.57;0.10;;;9.20;99.90;;;;;;5026596;28;20508;-78
2021/05/25 03:05:59;;;;;;;1.17;0.20;;;9.20;99.90;;;;;;5028749;28;20030;-78
2021/05/25 03:08:26;;;;;;;0.45;0.30;;;9.20;99.90;;;;;;5029853;28;20098;-77
2021/05/25 03:10:52;;;;;;;0.75;0.30;;;9.20;99.90;;;;;;5029353;28;20033;-78
2021/05/25 03:13:18;;;;;;;0.57;0.30;;;9.20;99.90;;;;;;5033210;28;20437;-78
2021/05/25 03:15:46;;;;;;;0.80;0.15;;;9.20;99.90;;;;;;5030666;28;20033;-78
2021/05/25 03:18:13;;;;;;;1.60;0.43;;;9.30;99.90;;;;;;5030864;28;20101;-77
2021/05/25 03:20:43;;;;;;;0.50;0.20;;;9.30;99.90;;;;;;5028762;28;20040;-77
2021/05/25 03:23:09;;;;;;;0.30;0.30;;;9.20;99.90;;;;;;4997161;28;20795;-78
2021/05/25 03:25:35;;;;;;;3.17;0.57;;;9.30;99.90;;;;;;5028572;28;20121;-77
2021/05/25 03:28:02;;;;;;;0.20;0.10;;;9.30;99.90;;;;;;5029574;28;20036;-77
2021/05/25 03:30:28;;;;;;;0.20;0.20;;;9.20;99.90;;;;;;5028272;28;20037;-77
2021/05/25 03:32:55;;;;;;;1.65;1.00;;;9.30;99.90;;;;;;5029549;28;20140;-77
2021/05/25 03:35:22;;;;;;;0.30;0.30;;;9.30;99.90;;;;;;5028833;28;20036;-77
2021/05/25 03:37:48;;;;;;;0.20;0.20;;;9.30;99.90;;;;;;5028448;28;20112;-77
2021/05/25 03:40:15;;;;;;;1.65;0.20;;;9.30;99.90;;;;;;5026024;28;20117;-77
2021/05/25 03:42:49;;;;;;;0.22;0.20;;;9.40;99.90;;;;;;5030065;28;20620;-78
2021/05/25 03:45:16;;;;;;;0.20;0.20;;;9.30;99.90;;;;;;5030363;28;20124;-77
2021/05/25 03:47:41;;;;;;;1.80;0.30;;;9.30;99.90;;;;;;5033080;28;20517;-77
2021/05/25 03:50:09;;;;;;;0.65;0.40;;;9.20;99.90;;;;;;5032585;28;20033;-77
2021/05/25 03:52:42;;;;;;;0.22;0.22;;;9.20;99.90;;;;;;5033308;28;20121;-77
2021/05/25 03:55:20;;;;;;;2.08;0.40;;;9.20;99.90;;;;;;5032428;28;20108;-77
2021/05/25 04:00:13;;;;;;;0.75;0.38;;;9.20;99.90;;;;;;5032368;28;20037;-78
2021/05/25 04:02:39;;;;;;;0.85;0.40;;;9.20;99.90;;;;;;5033391;28;20038;-77
2021/05/25 04:05:06;;;;;;;1.83;0.25;;;9.20;99.90;;;;;;5031506;28;20083;-77
2021/05/25 04:07:32;;;;;;;0.20;0.10;;;9.20;99.90;;;;;;5032865;28;20164;-77
2021/05/25 04:09:58;;;;;;;0.95;0.15;;;9.20;99.90;;;;;;5030271;28;20521;-77
2021/05/25 04:12:23;;;;;;;0.98;0.30;;;9.20;99.90;;;;;;5014874;28;20044;-77
2021/05/25 04:14:49;;;;;;;0.17;0.17;;;9.20;99.90;;;;;;5027182;28;20021;-77
2021/05/25 04:17:15;;;;;;;1.08;0.30;;;9.20;99.90;;;;;;5033398;28;20022;-78
2021/05/25 04:19:40;;;;;;;2.17;0.20;;;9.20;99.90;;;;;;5032716;28;20025;-77
2021/05/25 04:22:06;;;;;;;0.20;0.20;;;9.20;99.90;;;;;;5032303;28;20539;-78
2021/05/25 04:24:32;;;;;;;0.20;0.20;;;9.20;99.90;;;;;;5032094;28;20041;-78
2021/05/25 04:26:57;;;;;;;1.23;0.30;;;9.20;99.90;;;;;;5031783;28;20037;-78
2021/05/25 04:29:23;;;;;;;0.20;0.20;;;9.20;99.90;;;;;;5031687;28;20057;-79
2021/05/25 04:31:49;;;;;;;0.30;0.20;;;9.20;99.90;;;;;;5035871;28;20099;-77
2021/05/25 04:34:14;;;;;;;0.50;0.22;;;9.20;99.90;;;;;;5036783;28;20510;-78
2021/05/25 04:36:40;;;;;;;0.30;0.25;;;9.10;99.90;;;;;;5030750;28;20436;-78
2021/05/25 04:39:06;;;;;;;0.43;0.30;;;9.00;99.90;;;;;;5035544;28;20041;-78
2021/05/25 04:41:31;;;;;;;5.30;0.40;;;9.00;99.90;;;;;;5036462;28;20029;-78
2021/05/25 04:43:57;;;;;;;1.17;0.25;;;9.00;99.90;;;;;;5032946;28;20425;-78
2021/05/25 04:46:23;;;;;;;1.50;1.00;;;8.90;99.90;;;;;;5017064;28;20052;-79
2021/05/25 04:48:48;;;;;;;1.20;0.50;;;8.90;99.90;;;;;;5019202;28;20063;-78
2021/05/25 04:51:14;;;;;;;0.57;0.20;;;8.90;99.90;;;;;;5035004;28;20072;-78
2021/05/25 04:53:40;;;;;;;2.13;0.20;;;8.90;99.90;;;;;;5035233;28;20033;-79
2021/05/25 04:56:05;;;;;;;0.35;0.25;;;8.90;99.90;;;;;;5026602;28;20029;-79
2021/05/25 04:58:31;;;;;;;0.65;0.40;;;9.00;99.90;;;;;;5034290;28;20119;-79
2021/05/25 05:00:57;;;;;;;0.65;0.28;;;9.10;99.90;;;;;;5030685;28;20044;-77
2021/05/25 05:03:24;;;;;;;0.63;0.45;;;9.20;99.90;;;;;;5013905;28;21614;-77
2021/05/25 05:05:50;;;;;;;0.88;0.30;;;9.30;99.90;;;;;;5013702;28;20037;-77
2021/05/25 05:08:16;;;;;;;0.38;0.22;;;9.40;99.90;;;;;;5031338;28;20025;-77
2021/05/25 05:10:42;;;;;;;0.52;0.20;;;9.50;99.90;;;;;;4995816;28;20517;-77
2021/05/25 05:13:10;;;;;;;0.55;0.20;;;9.50;99.90;;;;;;5030046;28;20117;-77
2021/05/25 05:15:36;;;;;;;1.50;0.20;;;9.60;99.90;;;;;;5030546;28;20084;-77
2021/05/25 05:18:02;;;;;;;0.88;0.43;;;9.50;99.90;;;;;;5029056;28;20021;-79
2021/05/25 05:20:28;;;;;;;0.28;0.28;;;9.50;99.90;;;;;;5032043;28;20498;-79
2021/05/25 05:22:54;;;;;;;1.15;0.28;;;9.50;99.90;;;;;;5032053;28;20051;-79
2021/05/25 05:25:19;;;;;;;1.52;0.30;;;9.50;99.90;;;;;;5031804;28;20067;-79
2021/05/25 05:27:45;;;;;;;1.58;0.30;;;9.60;99.90;;;;;;5032039;28;20025;-78
2021/05/25 05:30:12;;;;;;;4.70;0.40;;;9.60;99.90;;;;;;5023565;28;20034;-78
2021/05/25 05:32:38;;;;;;;0.10;0.10;;;9.70;99.90;;;;;;5032834;28;20045;-79
2021/05/25 05:35:05;;;;;;;0.20;0.20;;;10.10;99.90;;;;;;5032036;28;20034;-79
2021/05/25 05:37:31;;;;;;;1.83;0.50;;;10.50;99.90;;;;;;5031403;28;20033;-79
2021/05/25 05:39:57;;;;;;;1.42;0.32;;;11.00;99.90;;;;;;5029908;28;20027;-79
2021/05/25 05:42:23;;;;;;;1.88;0.35;;;11.50;99.90;;;;;;5011932;28;20030;-78
2021/05/25 05:44:49;;;;;;;1.23;0.50;;;11.90;99.90;;;;;;5030417;28;20036;-78
2021/05/25 05:47:15;;;;;;;0.85;0.20;;;12.30;99.90;;;;;;5028083;28;20040;-76
2021/05/25 05:49:40;;;;;;;1.30;0.30;;;12.60;99.90;;;;;;5026602;28;20547;-77
2021/05/25 05:52:06;;;;;;;1.05;0.20;;;12.90;99.90;;;;;;5030266;28;20052;-77
2021/05/25 05:54:32;;;;;;;0.55;0.20;;;12.90;99.90;;;;;;5029158;28;20040;-77
2021/05/25 05:56:58;;;;;;;1.35;0.50;;;12.70;99.90;;;;;;5027162;28;20013;-77
2021/05/25 05:59:24;;;;;;;2.20;0.40;;;12.50;99.90;;;;;;5029266;28;20583;-78
2021/05/25 06:01:49;;;;;;;0.75;0.30;;;12.20;99.90;;;;;;5030416;28;20086;-77
2021/05/25 06:04:15;;;;;;;1.08;0.20;;;11.90;99.90;;;;;;5030321;28;20917;-78
2021/05/25 06:06:41;;;;;;;0.65;0.25;;;11.70;99.90;;;;;;5027944;28;20038;-77
2021/05/25 06:09:07;;;;;;;0.20;0.20;;;11.30;99.90;;;;;;5029867;28;21332;-78
2021/05/25 06:11:33;;;;;;;1.00;0.52;;;11.10;99.90;;;;;;5029457;28;20112;-78
2021/05/25 06:13:59;;;;;;;0.60;0.25;;;11.00;99.90;;;;;;5030502;28;20034;-78
2021/05/25 06:16:25;;;;;;;1.48;0.30;;;10.90;99.90;;;;;;5028294;28;20104;-77
2021/05/25 06:18:51;;;;;;;2.25;0.35;;;10.80;99.90;;;;;;5006935;28;20183;-78
2021/05/25 06:21:16;;;;;;;0.40;0.30;;;10.70;99.90;;;;;;5012381;28;20546;-78
2021/05/25 06:23:42;;;;;;;0.63;0.30;;;10.60;99.90;;;;;;5028429;28;20482;-77
2021/05/25 06:26:08;;;;;;;0.70;0.20;;;10.60;99.90;;;;;;5027257;28;20061;-78
2021/05/25 06:28:34;;;;;;;1.98;0.13;;;10.50;99.90;;;;;;5026483;28;20071;-78
2021/05/25 06:30:59;;;;;;;0.38;0.30;;;10.50;99.90;;;;;;5029770;28;20040;-78
2021/05/25 06:33:26;;;;;;;0.70;0.40;;;10.60;99.90;;;;;;5009110;28;20057;-78
2021/05/25 06:35:51;;;;;;;1.02;0.30;;;10.70;99.90;;;;;;5004275;28;20045;-78
2021/05/25 06:38:18;;;;;;;1.48;0.30;;;10.70;99.90;;;;;;5027762;28;20151;-78
2021/05/25 06:40:45;;;;;;;1.63;0.38;;;10.60;99.90;;;;;;5027863;28;20033;-78
2021/05/25 06:43:11;;;;;;;1.38;0.20;;;10.50;99.90;;;;;;5026490;28;20051;-78
2021/05/25 06:45:37;;;;;;;0.90;0.30;;;10.40;99.90;;;;;;5027072;28;20026;-78
2021/05/25 06:48:03;;;;;;;0.40;0.30;;;10.40;99.90;;;;;;5027331;28;20060;-78
2021/05/25 06:50:29;;;;;;;0.65;0.30;;;10.50;99.90;;;;;;5027618;28;20055;-79
2021/05/25 06:52:55;;;;;;;0.20;0.20;;;10.50;99.90;;;;;;5027870;28;20037;-78
2021/05/25 06:55:21;;;;;;;0.63;0.30;;;10.50;99.90;;;;;;5027108;28;20033;-78
2021/05/25 06:57:47;;;;;;;1.45;0.52;;;10.50;99.90;;;;;;5010529;28;20036;-78
2021/05/25 07:00:14;;;;;;;0.20;0.20;;;10.40;99.90;;;;;;5020628;28;20033;-79
2021/05/25 07:02:39;;;;;;;0.45;0.38;;;10.40;99.90;;;;;;5027750;28;20151;-78
2021/05/25 07:05:09;;;;;;;0.98;0.20;;;10.40;99.90;;;;;;5008720;28;20120;-79
2021/05/25 07:07:35;;;;;;;0.20;0.20;;;10.50;99.90;;;;;;5027093;28;20056;-79
2021/05/25 07:10:03;;;;;;;0.65;0.30;;;10.50;99.90;;;;;;5027651;28;20691;-79
2021/05/25 07:12:29;;;;;;;0.28;0.28;;;10.60;99.90;;;;;;5027718;28;20167;-78
2021/05/25 07:14:54;;;;;;;0.63;0.28;;;10.50;99.90;;;;;;5026428;28;20558;-78
2021/05/25 07:17:20;;;;;;;1.27;0.65;;;10.60;99.90;;;;;;5025864;28;20026;-79
2021/05/25 07:19:46;;;;;;;0.20;0.20;;;11.30;99.90;;;;;;5031397;28;20033;-78
2021/05/25 07:22:12;;;;;;;2.10;0.30;;;12.10;99.90;;;;;;5032986;28;20065;-78
2021/05/25 07:24:38;;;;;;;0.40;0.20;;;12.70;99.90;;;;;;5030772;28;20030;-78
2021/05/25 07:27:04;;;;;;;1.83;0.50;;;12.90;99.90;;;;;;5030411;28;20025;-78
2021/05/25 07:29:30;;;;;;;0.20;0.20;;;12.90;99.90;;;;;;5015555;28;20041;-78
2021/05/25 07:31:56;;;;;;;0.30;0.30;;;12.80;99.90;;;;;;5032711;28;20052;-78
2021/05/25 07:34:22;;;;;;;1.98;0.30;;;12.70;99.90;;;;;;5032412;28;20037;-78
2021/05/25 07:36:48;;;;;;;0.52;0.30;;;12.70;99.90;;;;;;5027159;28;20029;-77
2021/05/25 07:39:15;;;;;;;0.30;0.30;;;12.70;99.90;;;;;;5029421;28;20036;-78
2021/05/25 07:41:41;;;;;;;0.93;0.30;;;13.00;99.90;;;;;;5027645;28;20029;-78
2021/05/25 07:44:06;;;;;;;0.43;0.17;;;13.00;99.90;;;;;;5029662;28;20470;-78
2021/05/25 07:46:32;;;;;;;0.73;0.40;;;12.80;99.90;;;;;;5029290;28;20035;-78
2021/05/25 07:48:58;;;;;;;1.67;0.38;;;12.50;99.90;;;;;;5031226;28;20033;-79
2021/05/25 07:51:24;;;;;;;0.47;0.20;;;12.20;99.90;;;;;;5027313;28;20021;-78
2021/05/25 07:53:51;;;;;;;0.30;0.30;;;11.60;99.90;;;;;;5025429;28;20037;-78
2021/05/25 07:56:17;;;;;;;0.32;0.20;;;11.00;99.90;;;;;;5012363;28;20030;-79
2021/05/25 07:58:43;;;;;;;0.60;0.20;;;10.60;99.90;;;;;;5027865;28;20026;-78
2021/05/25 08:01:09;;;;;;;1.05;0.30;;;10.20;99.90;;;;;;5030196;28;20030;-78
2021/05/25 08:03:35;;;;;;;3.58;0.20;;;9.80;99.90;;;;;;5029669;28;20032;-79
2021/05/25 08:06:01;;;;;;;0.10;0.10;;;9.50;99.90;;;;;;5027313;28;20103;-78
2021/05/25 08:08:27;;;;;;;1.10;0.20;;;9.40;99.90;;;;;;5027751;28;20094;-78
2021/05/25 08:10:53;;;;;;;0.73;0.30;;;9.20;99.90;;;;;;5029352;28;20025;-78
2021/05/25 08:13:20;;;;;;;0.68;0.20;;;9.10;99.90;;;;;;5012150;28;20022;-77
2021/05/25 08:15:46;;;;;;;0.15;0.13;;;9.00;99.90;;;;;;5028477;28;20605;-79
2021/05/25 08:21:16;;;;;;;0.20;0.20;;;8.90;99.90;;;;;;4967141;28;20504;-79
2021/05/25 08:23:42;;;;;;;0.20;0.20;;;9.00;99.90;;;;;;4971886;28;20105;-79
2021/05/25 08:26:10;;;;;;;0.40;0.40;;;9.20;99.90;;;;;;4992216;28;20050;-79
2021/05/25 08:28:35;;;;;;;0.65;0.30;;;9.50;99.90;;;;;;5012326;28;20144;-77
2021/05/25 08:31:01;;;;;;;0.95;0.20;;;9.70;99.90;;;;;;5030634;28;20025;-78
2021/05/25 08:33:27;;;;;;;0.60;0.40;;;10.10;99.90;;;;;;5029859;28;20448;-79
2021/05/25 08:35:53;;;;;;;0.28;0.28;;;10.40;99.90;;;;;;5029994;28;20017;-79
2021/05/25 08:38:21;;;;;;;0.68;0.30;;;10.70;99.90;;;;;;5028375;28;20029;-79
2021/05/25 08:40:49;;;;;;;0.80;0.22;;;11.10;99.90;;;;;;5031067;28;20109;-79
2021/05/25 08:43:16;;;;;;;0.82;0.40;;;11.40;99.90;;;;;;5028710;28;20034;-79
2021/05/25 08:45:42;;;;;;;0.38;0.30;;;11.70;99.90;;;;;;5027741;28;20040;-78
2021/05/25 08:48:08;;;;;;;2.22;0.22;;;11.90;99.90;;;;;;5030291;28;20033;-79
2021/05/25 08:50:34;;;;;;;0.35;0.20;;;12.10;99.90;;;;;;5028641;28;20030;-79
2021/05/25 08:53:02;;;;;;;0.30;0.30;;;12.30;99.90;;;;;;5008807;28;20053;-79
2021/05/25 08:55:29;;;;;;;1.20;0.30;;;12.50;99.90;;;;;;5027825;28;20073;-78
2021/05/25 08:57:56;;;;;;;2.50;0.20;;;12.50;99.90;;;;;;5028602;28;20076;-79
2021/05/25 09:00:22;;;;;;;3.33;0.30;;;12.40;99.90;;;;;;5026434;28;20022;-78
2021/05/25 09:02:48;;;;;;;0.22;0.22;;;12.30;99.90;;;;;;5031088;28;20049;-79
2021/05/25 09:05:18;;;;;;;0.35;0.30;;;12.30;99.90;;;;;;5028822;28;20033;-77
2021/05/25 09:07:50;;;;;;;0.55;0.20;;;12.30;99.90;;;;;;5011038;28;20044;-78
2021/05/25 09:10:41;;;;;;;2.05;0.50;;;12.20;99.90;;;;;;5028297;28;20049;-78
2021/05/25 09:13:33;;;;;;;1.52;0.30;;;11.90;99.90;;;;;;5028654;28;20088;-78
2021/05/25 09:16:01;;;;;;;0.32;0.22;;;11.80;99.90;;;;;;5023718;28;20040;-79
2021/05/25 09:18:29;;;;;;;0.38;0.22;;;11.80;99.90;;;;;;5012937;28;20541;-78
2021/05/25 09:20:58;;;;;;;0.93;0.50;;;12.00;99.90;;;;;;5012714;28;20045;-78
2021/05/25 09:23:43;;;;;;;0.77;0.40;;;12.10;99.90;;;;;;5027635;28;20045;-77
2021/05/25 09:26:13;;;;;;;0.65;0.35;;;12.10;99.90;;;;;;5028080;28;20367;-78
2021/05/25 09:29:04;;;;;;;0.50;0.30;;;12.20;99.90;;;;;;5030585;28;20026;-77
2021/05/25 09:31:56;;;;;;;2.20;0.30;;;12.30;99.90;;;;;;5019267;28;20068;-78
2021/05/25 09:34:24;;;;;;;0.88;0.30;;;12.40;99.90;;;;;;5022469;28;20052;-78
2021/05/25 09:37:09;;;;;;;0.30;0.30;;;12.20;99.90;;;;;;5026453;28;20026;-78
2021/05/25 09:39:40;;;;;;;3.08;0.30;;;12.10;99.90;;;;;;5027152;28;20040;-77
2021/05/25 09:42:12;;;;;;;0.73;0.20;;;12.00;99.90;;;;;;5041266;28;20065;-77
2021/05/25 09:44:59;;;;;;;0.28;0.20;;;11.60;99.90;;;;;;5027653;28;20036;-78
2021/05/25 09:47:51;;;;;;;0.43;0.30;;;11.60;99.90;;;;;;5027423;28;20029;-77
2021/05/25 09:50:17;;;;;;;0.60;0.30;;;11.80;99.90;;;;;;5027601;28;20029;-77
2021/05/25 09:53:10;;;;;;;2.17;0.25;;;12.00;99.90;;;;;;5029478;28;20378;-78
2021/05/25 09:55:53;;;;;;;0.30;0.30;;;12.00;99.90;;;;;;5028413;28;20030;-78
2021/05/25 09:58:37;;;;;;;0.20;0.20;;;11.90;99.90;;;;;;5028794;28;20025;-78
2021/05/25 10:01:08;;;;;;;1.08;0.13;;;11.90;99.90;;;;;;5024117;28;20030;-79
2021/05/25 10:03:43;;;;;;;1.13;0.30;;;12.00;99.90;;;;;;5027832;28;20075;-79
2021/05/25 10:06:09;;;;;;;0.38;0.15;;;12.10;99.90;;;;;;5027906;28;20033;-79
2021/05/25 10:08:36;;;;;;;0.60;0.20;;;12.30;99.90;;;;;;5023228;28;20036;-78
2021/05/25 10:11:03;;;;;;;2.50;0.20;;;12.40;99.90;;;;;;5027642;28;20120;-79
2021/05/25 10:13:31;;;;;;;0.22;0.22;;;12.50;99.90;;;;;;5027902;28;20037;-79
2021/05/25 10:15:57;;;;;;;0.32;0.10;;;12.60;99.90;;;;;;5028166;28;20525;-78
2021/05/25 10:18:35;;;;;;;0.47;0.10;;;12.50;99.90;;;;;;5029608;28;20029;-78
2021/05/25 10:21:07;;;;;;;0.20;0.20;;;12.50;99.90;;;;;;5027772;28;20637;-79
2021/05/25 10:23:34;;;;;;;0.38;0.15;;;12.30;99.90;;;;;;5026270;28;20068;-77
2021/05/25 10:26:03;;;;;;;0.70;0.10;;;12.20;99.90;;;;;;5028637;28;20112;-78
2021/05/25 10:28:29;;;;;;;0.40;0.10;;;12.20;99.90;;;;;;5009214;28;20575;-78
2021/05/25 10:30:57;;;;;;;1.58;0.20;;;12.00;99.90;;;;;;5027422;28;20033;-79
2021/05/25 10:33:28;;;;;;;0.98;0.10;;;11.80;99.90;;;;;;5023367;28;20029;-77
2021/05/25 10:35:58;;;;;;;0.65;0.20;;;11.60;99.90;;;;;;5009981;28;20526;-78
2021/05/25 10:38:52;;;;;;;0.10;0.10;;;11.50;99.90;;;;;;5026626;28;20072;-78
2021/05/25 10:41:27;;;;;;;0.28;0.17;;;11.60;99.90;;;;;;5026773;28;20022;-78
2021/05/25 10:43:55;;;;;;;0.95;0.38;;;11.60;99.90;;;;;;5025296;28;20377;-77
2021/05/25 10:46:24;;;;;;;0.88;0.28;;;11.40;99.90;;;;;;5022779;28;20097;-77
2021/05/25 10:49:15;;;;;;;0.10;0.10;;;11.50;99.90;;;;;;5027688;28;20115;-78
2021/05/25 10:51:51;;;;;;;1.45;0.30;;;11.60;99.90;;;;;;5031050;28;20049;-78
2021/05/25 10:54:25;;;;;;;0.15;0.10;;;11.70;99.90;;;;;;5029487;28;20033;-78
2021/05/25 10:56:51;;;;;;;0.43;0.20;;;11.90;99.90;;;;;;5028282;28;20485;-79
2021/05/25 10:59:19;;;;;;;0.20;0.20;;;12.30;99.90;;;;;;5028081;28;20026;-78
2021/05/25 11:01:52;;;;;;;0.85;0.10;;;12.60;99.90;;;;;;5025793;28;20064;-78
2021/05/25 11:04:35;;;;;;;0.20;0.20;;;12.90;99.90;;;;;;5020409;28;20422;-79
2021/05/25 11:07:21;;;;;;;0.20;0.10;;;13.30;99.90;;;;;;5026798;28;20176;-78
2021/05/25 11:09:46;;;;;;;0.25;0.10;;;13.60;99.90;;;;;;5027621;28;20057;-78
2021/05/25 11:12:13;;;;;;;0.30;0.10;;;13.90;99.90;;;;;;5027337;28;20438;-78
2021/05/25 11:15:15;;;;;;;0.10;0.10;;;14.00;99.90;;;;;;5024671;28;20029;-79
2021/05/25 11:17:41;;;;;;;0.10;0.10;;;14.00;99.90;;;;;;5026437;28;20600;-79
2021/05/25 11:20:39;;;;;;;1.65;0.10;;;14.00;99.90;;;;;;5009704;28;20029;-77
2021/05/25 11:23:52;;;;;;;0.17;0.17;;;13.80;99.90;;;;;;5025319;28;20033;-80
2021/05/25 11:26:52;;;;;;;0.30;0.20;;;13.10;99.90;;;;;;5027382;28;20113;-79
2021/05/25 11:29:19;;;;;;;1.13;0.20;;;13.00;99.90;;;;;;5026941;28;20033;-79
2021/05/25 11:31:45;;;;;;;0.17;0.10;;;13.00;99.90;;;;;;5024543;28;20033;-79
2021/05/25 11:34:11;;;;;;;1.00;0.10;;;13.10;99.90;;;;;;5028861;28;20028;-78
2021/05/25 11:36:37;;;;;;;0.45;0.25;;;13.30;99.90;;;;;;5024671;28;20107;-78
2021/05/25 11:39:08;;;;;;;0.93;0.70;;;13.50;99.90;;;;;;5018961;28;20056;-79
2021/05/25 11:41:35;;;;;;;0.10;0.10;;;13.70;99.90;;;;;;5027888;28;20017;-80
2021/05/25 11:44:10;;;;;;;1.02;0.00;;;13.90;99.90;;;;;;5027346;28;20048;-79
2021/05/25 11:46:45;;;;;;;0.35;0.30;;;14.10;99.90;;;;;;5024638;28;20126;-79
2021/05/25 11:49:12;;;;;;;0.20;0.10;;;13.90;99.90;;;;;;5023599;28;20075;-77
2021/05/25 11:51:39;;;;;;;0.90;0.10;;;13.90;99.90;;;;;;5024851;28;20033;-79
2021/05/25 11:54:16;;;;;;;1.40;0.30;;;13.90;99.90;;;;;;5027011;28;20044;-78
2021/05/25 11:56:46;;;;;;;0.30;0.10;;;14.00;99.90;;;;;;5026181;28;20108;-79
2021/05/25 11:59:20;;;;;;;0.08;0.00;;;14.20;99.90;;;;;;5025518;28;20157;-77
2021/05/25 12:01:53;;;;;;;0.75;0.30;;;14.30;99.90;;;;;;5022169;28;20425;-77
2021/05/25 12:04:20;;;;;;;0.10;0.10;;;14.40;99.90;;;;;;5021808;28;20017;-77
2021/05/25 12:06:55;;;;;;;2.30;0.20;;;14.60;99.90;;;;;;5008567;28;20103;-77
2021/05/25 12:09:26;;;;;;;0.57;0.00;;;14.50;99.90;;;;;;5028967;28;20045;-78
2021/05/25 12:12:01;;;;;;;0.32;0.05;;;14.60;99.90;;;;;;5026718;28;20100;-77
2021/05/25 12:14:32;;;;;;;0.15;0.13;;;14.80;99.90;;;;;;5029069;28;20163;-78
2021/05/25 12:16:59;;;;;;;2.15;0.20;;;14.90;99.90;;;;;;5029246;28;20044;-78
2021/05/25 12:19:26;;;;;;;0.20;0.20;;;14.80;99.90;;;;;;5012310;28;20090;-79
2021/05/25 12:22:02;;;;;;;0.20;0.10;;;14.80;99.90;;;;;;5028871;28;20120;-80
2021/05/25 12:24:30;;;;;;;0.10;0.10;;;14.80;99.90;;;;;;5016309;28;20052;-78
2021/05/25 12:26:57;;;;;;;0.15;0.10;;;14.60;99.90;;;;;;5030355;28;20036;-78
2021/05/25 12:29:25;;;;;;;0.32;0.17;;;14.70;99.90;;;;;;5031893;28;20052;-78
2021/05/25 12:31:52;;;;;;;0.60;0.15;;;14.90;99.90;;;;;;5030520;28;20101;-78
2021/05/25 12:34:20;;;;;;;0.47;0.10;;;14.90;99.90;;;;;;5033034;28;20105;-78
2021/05/25 12:37:00;;;;;;;0.47;0.10;;;15.10;99.90;;;;;;5028568;28;20030;-78
2021/05/25 12:39:39;;;;;;;0.63;0.20;;;15.50;99.90;;;;;;5027562;28;20042;-78
2021/05/25 12:42:18;;;;;;;0.13;0.10;;;15.80;99.90;;;;;;5012234;28;20135;-78
2021/05/25 12:44:44;;;;;;;0.10;0.10;;;16.10;98.30;;;;;;5028077;28;20837;-79
2021/05/25 12:47:14;;;;;;;1.45;0.10;;;16.00;97.10;;;;;;5032448;28;20042;-78
2021/05/25 12:49:43;;;;;;;0.10;0.10;;;15.80;95.70;;;;;;5015887;28;20061;-79
2021/05/25 12:52:32;;;;;;;1.48;0.10;;;15.40;97.20;;;;;;5014350;28;20051;-79
2021/05/25 12:55:06;;;;;;;0.20;0.20;;;15.20;99.90;;;;;;5029103;28;20056;-78
2021/05/25 12:57:48;;;;;;;0.80;0.20;;;15.00;99.90;;;;;;5030476;28;20029;-78
2021/05/25 13:00:16;;;;;;;0.77;0.30;;;14.90;99.90;;;;;;5030542;28;20446;-78
2021/05/25 13:02:51;;;;;;;2.17;0.10;;;14.90;99.90;;;;;;5015130;28;20029;-78
2021/05/25 13:05:23;;;;;;;0.75;0.28;;;15.00;97.90;;;;;;5030595;28;20025;-78